createdAt,value
2017-10-26T00:01:09.717Z,92.17
2017-10-26T00:03:37.247Z,92.15
2017-10-26T00:06:05.541Z,92.14
2017-10-26T00:08:33.862Z,92.86
2017-10-26T00:11:03.072Z,92.23
2017-10-26T00:13:32.050Z,92.34
2017-10-26T00:16:01.018Z,93.25
2017-10-26T00:18:28.546Z,93.42
2017-10-26T00:20:56.069Z,94.03
2017-10-26T00:23:24.501Z,93.92
2017-10-26T00:25:52.029Z,93.94
2017-10-26T00:28:19.561Z,93.99
2017-10-26T00:30:47.994Z,92.25
2017-10-26T00:33:16.341Z,92.04
2017-10-26T00:35:44.676Z,91.62
2017-10-26T00:38:12.251Z,90.87
2017-10-26T00:40:39.781Z,90.08
2017-10-26T00:43:08.100Z,89.75
2017-10-26T00:45:36.404Z,89.49
2017-10-26T00:48:04.619Z,88.93
2017-10-26T00:50:33.661Z,89.09
2017-10-26T00:53:01.188Z,88.83
2017-10-26T00:55:28.752Z,88.79
2017-10-26T00:57:57.180Z,88.88
2017-10-26T01:00:25.626Z,88.93
2017-10-26T01:02:53.967Z,89.42
2017-10-26T01:05:21.489Z,89.38
2017-10-26T01:07:49.836Z,89.22
2017-10-26T01:10:17.360Z,89.38
2017-10-26T01:12:44.919Z,89.93
2017-10-26T01:15:12.448Z,90.41
2017-10-26T01:17:40.024Z,90.80
2017-10-26T01:20:07.553Z,90.75
2017-10-26T01:22:35.080Z,90.96
2017-10-26T01:25:03.428Z,91.37
2017-10-26T01:27:31.294Z,91.79
2017-10-26T01:30:00.792Z,91.86
2017-10-26T01:32:28.317Z,92.57
2017-10-26T01:34:55.848Z,92.74
2017-10-26T01:37:24.208Z,93.04
2017-10-26T01:39:51.743Z,93.52
2017-10-26T01:42:19.270Z,94.04
2017-10-26T01:44:46.808Z,93.71
2017-10-26T01:47:14.472Z,94.17
2017-10-26T01:49:41.996Z,94.41
2017-10-26T01:52:09.525Z,94.68
2017-10-26T01:54:37.097Z,95.04
2017-10-26T01:57:04.637Z,94.71
2017-10-26T01:59:32.885Z,94.44
2017-10-26T02:02:00.411Z,94.54
2017-10-26T02:04:27.955Z,94.62
2017-10-26T02:06:55.485Z,95.03
2017-10-26T02:09:23.796Z,95.37
2017-10-26T02:11:51.328Z,94.66
2017-10-26T02:14:18.859Z,95.05
2017-10-26T02:16:46.442Z,94.69
2017-10-26T02:19:13.975Z,94.96
2017-10-26T02:21:41.509Z,94.74
2017-10-26T02:24:09.044Z,94.86
2017-10-26T02:26:36.573Z,94.64
2017-10-26T02:29:15.967Z,94.61
2017-10-26T02:31:43.514Z,94.57
2017-10-26T02:34:11.056Z,94.55
2017-10-26T02:36:38.589Z,94.49
2017-10-26T02:39:06.117Z,94.50
2017-10-26T02:41:33.648Z,93.74
2017-10-26T02:44:01.427Z,93.41
2017-10-26T02:46:28.961Z,92.73
2017-10-26T02:48:56.505Z,93.23
2017-10-26T02:51:24.057Z,92.55
2017-10-26T02:53:51.591Z,92.52
2017-10-26T02:56:19.126Z,92.32
2017-10-26T02:58:46.689Z,92.79
2017-10-26T03:01:14.219Z,92.20
2017-10-26T03:03:41.755Z,92.68
2017-10-26T03:06:09.277Z,92.47
2017-10-26T03:08:36.812Z,92.36
2017-10-26T03:11:04.355Z,92.42
2017-10-26T03:13:32.575Z,92.68
2017-10-26T03:16:00.107Z,92.40
2017-10-26T03:18:27.640Z,92.61
2017-10-26T03:20:55.209Z,92.74
2017-10-26T03:23:22.736Z,92.09
2017-10-26T03:25:50.262Z,92.32
2017-10-26T03:28:17.789Z,92.22
2017-10-26T03:30:45.317Z,92.39
2017-10-26T03:33:12.843Z,92.40
2017-10-26T03:35:40.412Z,92.25
2017-10-26T03:38:07.948Z,92.49
2017-10-26T03:40:35.481Z,92.48
2017-10-26T03:43:03.668Z,92.64
2017-10-26T03:45:31.729Z,92.93
2017-10-26T03:48:00.284Z,92.97
2017-10-26T03:50:27.816Z,92.63
2017-10-26T03:52:55.349Z,92.50
2017-10-26T03:55:22.885Z,92.48
2017-10-26T03:57:51.286Z,92.67
2017-10-26T04:00:18.821Z,92.92
2017-10-26T04:02:46.346Z,92.59
2017-10-26T04:05:13.880Z,93.12
2017-10-26T04:07:41.418Z,93.21
2017-10-26T04:10:08.944Z,92.93
2017-10-26T04:12:36.480Z,93.36
2017-10-26T04:15:04.021Z,93.23
2017-10-26T04:17:32.023Z,93.49
2017-10-26T04:19:59.612Z,93.81
2017-10-26T04:22:27.147Z,93.34
2017-10-26T04:24:54.675Z,93.76
2017-10-26T04:27:22.208Z,93.33
2017-10-26T04:29:49.738Z,93.66
2017-10-26T04:32:17.270Z,93.69
2017-10-26T04:34:44.805Z,93.26
2017-10-26T04:37:12.340Z,93.52
2017-10-26T04:39:39.877Z,93.43
2017-10-26T04:42:07.456Z,93.15
2017-10-26T04:44:34.992Z,92.93
2017-10-26T04:47:03.124Z,92.96
2017-10-26T04:49:32.276Z,92.59
2017-10-26T04:51:59.808Z,92.99
2017-10-26T04:54:27.348Z,93.22
2017-10-26T04:56:54.881Z,92.66
2017-10-26T04:59:22.412Z,93.21
2017-10-26T05:01:49.958Z,93.08
2017-10-26T05:04:17.488Z,93.24
2017-10-26T05:06:45.021Z,93.26
2017-10-26T05:09:12.593Z,92.84
2017-10-26T05:11:40.125Z,92.36
2017-10-26T05:14:07.660Z,92.31
2017-10-26T05:16:35.217Z,92.57
2017-10-26T05:19:03.558Z,92.64
2017-10-26T05:21:31.149Z,92.61
2017-10-26T05:23:58.687Z,92.58
2017-10-26T05:26:26.249Z,92.06
2017-10-26T05:28:53.781Z,92.38
2017-10-26T05:31:21.315Z,92.42
2017-10-26T05:33:48.847Z,92.40
2017-10-26T05:36:16.416Z,92.54
2017-10-26T05:38:43.948Z,92.41
2017-10-26T05:41:11.499Z,92.68
2017-10-26T05:43:39.028Z,92.91
2017-10-26T05:46:06.556Z,93.21
2017-10-26T05:48:34.131Z,92.78
2017-10-26T05:51:01.673Z,92.77
2017-10-26T05:53:29.204Z,92.60
2017-10-26T05:55:56.741Z,92.37
2017-10-26T05:58:24.276Z,92.52
2017-10-26T06:00:51.808Z,92.70
2017-10-26T06:03:19.396Z,92.89
2017-10-26T06:05:46.929Z,92.67
2017-10-26T06:08:14.464Z,92.75
2017-10-26T06:10:43.029Z,92.54
2017-10-26T06:13:10.560Z,92.97
2017-10-26T06:15:38.137Z,93.33
2017-10-26T06:18:05.671Z,92.43
2017-10-26T06:20:33.201Z,92.78
2017-10-26T06:23:01.512Z,92.49
2017-10-26T06:25:29.824Z,92.39
2017-10-26T06:27:57.366Z,91.93
2017-10-26T06:30:24.892Z,93.05
2017-10-26T06:32:52.502Z,92.30
2017-10-26T06:35:20.953Z,92.57
2017-10-26T06:37:48.485Z,92.44
2017-10-26T06:40:17.844Z,92.32
2017-10-26T06:42:45.380Z,92.23
2017-10-26T06:45:14.546Z,92.51
2017-10-26T06:47:42.558Z,92.29
2017-10-26T06:50:10.100Z,92.13
2017-10-26T06:52:37.642Z,92.53
2017-10-26T06:55:05.210Z,92.19
2017-10-26T06:57:32.787Z,91.72
2017-10-26T07:00:00.319Z,91.78
2017-10-26T07:02:27.856Z,92.11
2017-10-26T07:04:56.280Z,91.77
2017-10-26T07:07:23.818Z,91.01
2017-10-26T07:09:51.352Z,91.41
2017-10-26T07:12:18.933Z,90.66
2017-10-26T07:14:46.469Z,91.21
2017-10-26T07:17:14.000Z,90.75
2017-10-26T07:19:42.198Z,90.51
2017-10-26T07:22:09.801Z,90.52
2017-10-26T07:24:37.341Z,89.62
2017-10-26T07:27:04.886Z,89.57
2017-10-26T07:29:32.420Z,88.70
2017-10-26T07:32:00.050Z,88.80
2017-10-26T07:34:28.526Z,88.49
2017-10-26T07:36:56.861Z,87.71
2017-10-26T07:39:24.444Z,87.73
2017-10-26T07:41:52.888Z,87.36
2017-10-26T07:44:20.424Z,87.21
2017-10-26T07:46:47.953Z,88.41
2017-10-26T07:49:15.544Z,87.64
2017-10-26T07:51:43.914Z,85.91
2017-10-26T07:54:12.216Z,86.73
2017-10-26T07:56:41.119Z,85.90
2017-10-26T07:59:08.644Z,85.23
2017-10-26T08:01:37.066Z,84.29
2017-10-26T08:04:04.604Z,85.65
2017-10-26T08:06:32.968Z,85.21
2017-10-26T08:09:01.291Z,84.96
2017-10-26T08:11:28.825Z,85.43
2017-10-26T08:13:57.073Z,85.40
2017-10-26T08:16:24.636Z,85.12
2017-10-26T08:18:53.060Z,85.76
2017-10-26T08:21:20.681Z,84.92
2017-10-26T08:23:48.209Z,84.25
2017-10-26T08:26:15.767Z,83.87
2017-10-26T08:28:43.297Z,83.84
2017-10-26T08:31:10.831Z,84.09
2017-10-26T08:33:38.473Z,84.37
2017-10-26T08:36:06.969Z,85.34
2017-10-26T08:38:34.503Z,82.93
2017-10-26T08:41:02.034Z,83.24
2017-10-26T08:43:29.644Z,82.31
2017-10-26T08:45:57.619Z,82.17
2017-10-26T08:48:25.159Z,82.93
2017-10-26T08:50:52.703Z,83.42
2017-10-26T08:53:20.880Z,81.61
2017-10-26T08:55:48.409Z,80.93
2017-10-26T08:58:15.945Z,81.95
2017-10-26T09:00:43.508Z,80.80
2017-10-26T09:03:11.993Z,80.34
2017-10-26T09:05:39.524Z,80.66
2017-10-26T09:08:07.058Z,79.80
2017-10-26T09:10:35.377Z,78.79
2017-10-26T09:13:02.901Z,80.48
2017-10-26T09:15:30.437Z,82.42
2017-10-26T09:17:58.780Z,80.18
2017-10-26T09:20:26.321Z,78.77
2017-10-26T09:22:53.853Z,80.21
2017-10-26T09:25:21.376Z,78.17
2017-10-26T09:27:48.905Z,79.54
2017-10-26T09:30:17.929Z,78.11
2017-10-26T09:32:45.460Z,78.30
2017-10-26T09:35:12.991Z,77.53
2017-10-26T09:37:40.524Z,76.93
2017-10-26T09:40:08.064Z,77.86
2017-10-26T09:42:35.600Z,76.71
2017-10-26T09:45:03.128Z,76.45
2017-10-26T09:47:31.657Z,76.21
2017-10-26T09:49:59.297Z,76.22
2017-10-26T09:52:26.894Z,78.01
2017-10-26T09:54:54.468Z,76.17
2017-10-26T09:57:22.012Z,76.62
2017-10-26T09:59:49.544Z,77.18
2017-10-26T10:02:17.774Z,76.11
2017-10-26T10:04:45.349Z,76.05
2017-10-26T10:07:12.879Z,76.55
2017-10-26T10:09:40.410Z,77.07
2017-10-26T10:12:07.951Z,76.84
2017-10-26T10:14:35.531Z,76.80
2017-10-26T10:17:03.066Z,77.29
2017-10-26T10:19:31.432Z,77.48
2017-10-26T10:21:59.487Z,76.06
2017-10-26T10:24:27.021Z,75.94
2017-10-26T10:26:54.591Z,76.24
2017-10-26T10:29:22.127Z,75.06
2017-10-26T10:31:49.686Z,74.16
2017-10-26T10:34:17.912Z,74.37
2017-10-26T10:36:45.453Z,74.26
2017-10-26T10:39:13.879Z,73.38
2017-10-26T10:41:41.457Z,73.63
2017-10-26T10:44:08.999Z,74.04
2017-10-26T10:46:36.529Z,72.98
2017-10-26T10:49:04.092Z,73.31
2017-10-26T10:51:31.634Z,72.75
2017-10-26T10:53:59.173Z,72.44
2017-10-26T10:56:26.700Z,72.76
2017-10-26T10:58:54.231Z,73.38
2017-10-26T11:01:21.768Z,71.79
2017-10-26T11:03:49.847Z,71.44
2017-10-26T11:06:17.384Z,72.32
2017-10-26T11:08:44.918Z,74.53
2017-10-26T11:11:12.461Z,74.61
2017-10-26T11:13:39.997Z,73.66
2017-10-26T11:16:07.528Z,73.97
2017-10-26T11:18:35.069Z,72.59
2017-10-26T11:21:02.614Z,73.59
2017-10-26T11:23:30.149Z,74.54
2017-10-26T11:25:57.683Z,74.37
2017-10-26T11:28:25.214Z,74.37
2017-10-26T11:30:52.788Z,75.34
2017-10-26T11:33:21.238Z,72.95
2017-10-26T11:35:50.094Z,73.80
2017-10-26T11:38:18.439Z,73.95
2017-10-26T11:40:46.699Z,74.90
2017-10-26T11:43:14.232Z,75.10
2017-10-26T11:45:42.490Z,73.78
2017-10-26T11:48:10.814Z,74.83
2017-10-26T11:50:39.701Z,74.38
2017-10-26T11:53:08.009Z,74.76
2017-10-26T11:55:35.568Z,75.44
2017-10-26T11:58:03.099Z,72.56
2017-10-26T12:00:30.630Z,73.46
2017-10-26T12:02:58.170Z,72.36
2017-10-26T12:05:26.596Z,73.13
2017-10-26T12:07:54.166Z,73.67
2017-10-26T12:10:22.490Z,73.37
2017-10-26T12:12:50.793Z,73.04
2017-10-26T12:15:18.635Z,74.65
2017-10-26T12:17:46.173Z,74.76
2017-10-26T12:20:13.700Z,73.04
2017-10-26T12:22:41.247Z,74.99
2017-10-26T12:25:09.478Z,74.17
2017-10-26T12:27:37.781Z,73.41
2017-10-26T12:30:05.350Z,71.47
2017-10-26T12:32:32.910Z,72.97
2017-10-26T12:35:01.337Z,71.96
2017-10-26T12:37:28.866Z,74.19
2017-10-26T12:39:56.391Z,73.08
2017-10-26T12:42:23.956Z,73.55
2017-10-26T12:44:51.485Z,70.99
2017-10-26T12:47:19.655Z,72.12
2017-10-26T12:49:48.800Z,73.17
2017-10-26T12:52:16.345Z,72.32
2017-10-26T12:54:43.880Z,70.66
2017-10-26T12:57:11.420Z,72.21
2017-10-26T12:59:39.869Z,71.21
2017-10-26T13:02:07.435Z,71.80
2017-10-26T13:04:35.024Z,72.98
2017-10-26T13:07:02.569Z,74.66
2017-10-26T13:09:30.109Z,74.40
2017-10-26T13:11:57.643Z,73.55
2017-10-26T13:14:25.201Z,74.35
2017-10-26T13:16:52.729Z,74.32
2017-10-26T13:19:20.259Z,73.52
2017-10-26T13:21:48.662Z,74.54
2017-10-26T13:24:16.190Z,73.48
2017-10-26T13:26:44.643Z,73.37
2017-10-26T13:29:12.178Z,74.36
2017-10-26T13:31:39.709Z,73.32
2017-10-26T13:34:07.246Z,75.11
2017-10-26T13:36:35.477Z,73.90
2017-10-26T13:39:03.070Z,75.68
2017-10-26T13:41:30.604Z,73.59
2017-10-26T13:43:58.201Z,74.18
2017-10-26T13:46:25.728Z,75.48
2017-10-26T13:48:53.261Z,74.99
2017-10-26T13:51:20.789Z,74.28
2017-10-26T13:53:48.657Z,76.00
2017-10-26T13:56:16.187Z,75.58
2017-10-26T13:58:43.748Z,75.94
2017-10-26T14:01:11.277Z,75.19
2017-10-26T14:03:38.807Z,75.75
2017-10-26T14:06:06.337Z,74.99
2017-10-26T14:08:33.865Z,75.19
2017-10-26T14:11:01.404Z,75.55
2017-10-26T14:13:28.939Z,75.67
2017-10-26T14:15:56.469Z,75.93
2017-10-26T14:18:24.042Z,75.61
2017-10-26T14:20:51.585Z,75.44
2017-10-26T14:23:19.129Z,76.46
2017-10-26T14:25:46.696Z,77.02
2017-10-26T14:28:14.236Z,76.23
2017-10-26T14:30:42.728Z,78.45
2017-10-26T14:33:10.256Z,76.62
2017-10-26T14:35:38.259Z,76.58
2017-10-26T14:38:06.024Z,76.52
2017-10-26T14:40:33.601Z,76.96
2017-10-26T14:43:01.136Z,77.02
2017-10-26T14:45:28.668Z,77.26
2017-10-26T14:47:56.206Z,77.20
2017-10-26T14:50:23.744Z,77.35
2017-10-26T14:52:51.289Z,77.55
2017-10-26T14:55:18.828Z,77.05
2017-10-26T14:57:46.359Z,79.64
2017-10-26T15:00:13.911Z,77.37
2017-10-26T15:02:41.479Z,77.58
2017-10-26T15:05:09.730Z,77.84
2017-10-26T15:07:38.964Z,78.94
2017-10-26T15:10:07.208Z,78.18
2017-10-26T15:12:34.785Z,78.43
2017-10-26T15:15:02.334Z,78.25
2017-10-26T15:17:29.881Z,79.33
2017-10-26T15:19:57.417Z,80.18
2017-10-26T15:22:25.650Z,80.92
2017-10-26T15:24:54.115Z,81.65
2017-10-26T15:27:21.655Z,81.67
2017-10-26T15:29:50.107Z,81.43
2017-10-26T15:32:18.566Z,82.35
2017-10-26T15:34:46.887Z,82.46
2017-10-26T15:37:14.481Z,83.20
2017-10-26T15:39:42.980Z,83.16
2017-10-26T15:42:11.572Z,82.73
2017-10-26T15:44:39.912Z,83.87
2017-10-26T15:47:07.641Z,83.57
2017-10-26T15:49:36.084Z,83.70
2017-10-26T15:52:03.665Z,84.08
2017-10-26T15:54:31.209Z,84.34
2017-10-26T15:56:58.749Z,84.52
2017-10-26T15:59:26.318Z,85.52
2017-10-26T16:01:53.856Z,84.65
2017-10-26T16:04:21.395Z,84.34
2017-10-26T16:06:48.932Z,84.19
2017-10-26T16:09:16.511Z,83.58
2017-10-26T16:11:44.047Z,84.09
2017-10-26T16:14:11.648Z,83.70
2017-10-26T16:16:39.189Z,83.86
2017-10-26T16:19:07.648Z,83.07
2017-10-26T16:21:35.931Z,84.03
2017-10-26T16:24:03.510Z,83.87
2017-10-26T16:26:31.845Z,83.40
2017-10-26T16:28:59.429Z,84.96
2017-10-26T16:31:27.800Z,83.54
2017-10-26T16:33:55.340Z,84.64
2017-10-26T16:36:22.881Z,83.60
2017-10-26T16:38:50.448Z,83.98
2017-10-26T16:41:18.004Z,83.42
2017-10-26T16:43:45.585Z,84.33
2017-10-26T16:46:14.000Z,84.07
2017-10-26T16:48:42.466Z,84.21
2017-10-26T16:51:10.836Z,84.16
2017-10-26T16:53:38.377Z,84.05
2017-10-26T16:56:05.980Z,84.63
2017-10-26T16:58:34.336Z,84.35
2017-10-26T17:01:01.922Z,83.95
2017-10-26T17:03:29.464Z,83.45
2017-10-26T17:05:57.010Z,83.19
2017-10-26T17:08:24.613Z,83.67
2017-10-26T17:10:52.145Z,83.59
2017-10-26T17:13:19.788Z,84.03
2017-10-26T17:15:47.342Z,84.41
2017-10-26T17:18:14.879Z,83.67
2017-10-26T17:20:42.419Z,83.54
2017-10-26T17:23:09.961Z,83.40
2017-10-26T17:25:39.276Z,83.43
2017-10-26T17:28:07.481Z,83.26
2017-10-26T17:30:35.061Z,82.62
2017-10-26T17:33:03.330Z,83.59
2017-10-26T17:35:31.648Z,82.63
2017-10-26T17:37:59.241Z,82.22
2017-10-26T17:40:27.790Z,82.42
2017-10-26T17:42:55.337Z,82.70
2017-10-26T17:45:22.912Z,82.62
2017-10-26T17:47:51.298Z,82.68
2017-10-26T17:50:19.710Z,82.40
2017-10-26T17:52:48.132Z,81.61
2017-10-26T17:55:15.673Z,81.96
2017-10-26T17:57:44.025Z,81.75
2017-10-26T18:00:11.572Z,81.79
2017-10-26T18:02:39.118Z,81.81
2017-10-26T18:05:07.950Z,82.61
2017-10-26T18:07:35.508Z,81.89
2017-10-26T18:10:03.236Z,82.50
2017-10-26T18:12:30.860Z,82.22
2017-10-26T18:14:58.437Z,82.59
2017-10-26T18:17:25.988Z,82.36
2017-10-26T18:19:53.932Z,82.37
2017-10-26T18:22:22.291Z,82.86
2017-10-26T18:24:49.829Z,82.59
2017-10-26T18:27:17.368Z,82.60
2017-10-26T18:29:44.909Z,82.04
2017-10-26T18:32:12.451Z,82.34
2017-10-26T18:34:40.720Z,83.27
2017-10-26T18:37:08.253Z,83.00
2017-10-26T18:39:35.802Z,83.09
2017-10-26T18:42:03.374Z,83.36
2017-10-26T18:44:32.241Z,83.46
2017-10-26T18:46:59.838Z,83.33
2017-10-26T18:49:27.454Z,83.23
2017-10-26T18:51:55.014Z,83.62
2017-10-26T18:54:23.418Z,83.71
2017-10-26T18:56:50.971Z,83.72
2017-10-26T18:59:19.457Z,83.80
2017-10-26T19:01:46.993Z,84.05
2017-10-26T19:04:15.372Z,84.78
2017-10-26T19:06:46.213Z,83.83
2017-10-26T19:09:14.804Z,83.73
2017-10-26T19:11:43.147Z,83.63
2017-10-26T19:14:10.733Z,82.70
2017-10-26T19:16:39.144Z,82.20
2017-10-26T19:19:06.728Z,82.34
2017-10-26T19:21:35.185Z,82.32
2017-10-26T19:24:02.793Z,81.28
2017-10-26T19:26:30.950Z,81.76
2017-10-26T19:28:59.268Z,81.23
2017-10-26T19:31:27.725Z,81.16
2017-10-26T19:33:56.105Z,81.45
2017-10-26T19:36:24.464Z,81.64
2017-10-26T19:38:53.413Z,81.91
2017-10-26T19:41:20.970Z,82.64
2017-10-26T19:43:48.525Z,83.00
2017-10-26T19:46:16.106Z,82.62
2017-10-26T19:48:44.365Z,82.81
2017-10-26T19:51:11.938Z,83.09
2017-10-26T19:53:41.213Z,83.18
2017-10-26T19:56:08.798Z,83.85
2017-10-26T19:58:36.824Z,84.60
2017-10-26T20:01:05.414Z,84.96
2017-10-26T20:03:32.952Z,86.02
2017-10-26T20:06:00.490Z,86.89
2017-10-26T20:08:28.736Z,85.32
2017-10-26T20:10:56.332Z,86.40
2017-10-26T20:13:23.879Z,85.38
2017-10-26T20:15:51.486Z,86.05
2017-10-26T20:18:19.733Z,87.05
2017-10-26T20:20:47.388Z,86.05
2017-10-26T20:23:14.942Z,86.76
2017-10-26T20:25:42.485Z,87.79
2017-10-26T20:28:10.045Z,88.34
2017-10-26T20:30:37.617Z,87.98
2017-10-26T20:33:06.000Z,88.05
2017-10-26T20:35:34.595Z,87.66
2017-10-26T20:38:02.135Z,87.88
2017-10-26T20:40:31.585Z,88.08
2017-10-26T20:42:59.204Z,88.31
2017-10-26T20:45:26.852Z,87.50
2017-10-26T20:47:55.321Z,87.81
2017-10-26T20:50:28.406Z,87.31
2017-10-26T20:53:01.670Z,87.69
2017-10-26T20:55:35.061Z,88.25
2017-10-26T20:58:08.275Z,88.60
2017-10-26T21:00:42.110Z,88.88
2017-10-26T21:03:15.234Z,89.40
2017-10-26T21:09:01.304Z,89.61
2017-10-26T21:11:35.567Z,88.99
2017-10-26T21:14:08.843Z,89.18
2017-10-26T21:16:38.406Z,89.67
2017-10-26T21:19:07.141Z,89.65
2017-10-26T21:21:35.031Z,89.77
2017-10-26T21:24:02.735Z,89.42
2017-10-26T21:26:30.357Z,89.82
2017-10-26T21:28:59.055Z,89.65
2017-10-26T21:31:48.261Z,90.45
2017-10-26T21:34:16.201Z,90.67
2017-10-26T21:36:43.816Z,89.71
2017-10-26T21:39:11.357Z,89.76
2017-10-26T21:41:38.934Z,89.74
2017-10-26T21:44:06.523Z,89.19
2017-10-26T21:46:34.067Z,89.50
2017-10-26T21:49:01.658Z,89.10
2017-10-26T21:51:29.496Z,89.58
2017-10-26T21:53:57.078Z,87.99
2017-10-26T21:56:24.623Z,87.62
2017-10-26T21:58:52.173Z,87.57
2017-10-26T22:01:19.721Z,87.24
2017-10-26T22:03:48.027Z,87.38
2017-10-26T22:06:15.567Z,87.31
2017-10-26T22:08:43.132Z,87.63
2017-10-26T22:11:10.668Z,87.29
2017-10-26T22:13:38.216Z,87.80
2017-10-26T22:16:06.368Z,86.98
2017-10-26T22:18:33.925Z,87.03
2017-10-26T22:21:02.288Z,86.76
2017-10-26T22:23:30.621Z,86.97
2017-10-26T22:25:59.112Z,86.68
2017-10-26T22:28:27.437Z,86.12
2017-10-26T22:30:54.996Z,86.44
2017-10-26T22:33:22.623Z,86.28
2017-10-26T22:35:50.989Z,85.81
2017-10-26T22:38:18.568Z,86.21
2017-10-26T22:40:46.104Z,86.23
2017-10-26T22:43:13.677Z,86.63
2017-10-26T22:45:41.571Z,86.39
2017-10-26T22:48:09.156Z,87.17
2017-10-26T22:50:36.691Z,87.71
2017-10-26T22:53:05.027Z,88.65
2017-10-26T22:55:32.565Z,87.08
2017-10-26T22:58:00.096Z,87.22
2017-10-26T23:00:27.663Z,86.67
2017-10-26T23:02:55.215Z,87.59
2017-10-26T23:05:22.796Z,87.04
2017-10-26T23:07:50.335Z,87.13
2017-10-26T23:10:17.871Z,87.49
2017-10-26T23:12:46.220Z,87.28
2017-10-26T23:15:13.760Z,86.83
2017-10-26T23:17:41.553Z,87.01
2017-10-26T23:20:09.135Z,87.04
2017-10-26T23:22:37.187Z,87.18
2017-10-26T23:25:04.772Z,86.86
2017-10-26T23:27:32.315Z,86.88
2017-10-26T23:29:59.854Z,86.83
2017-10-26T23:32:27.388Z,87.46
2017-10-26T23:34:55.301Z,87.20
2017-10-26T23:37:22.840Z,87.53
2017-10-26T23:39:50.421Z,86.90
2017-10-26T23:42:18.869Z,86.17
2017-10-26T23:44:47.150Z,86.06
2017-10-26T23:47:14.726Z,86.31
2017-10-26T23:49:42.270Z,86.02
2017-10-26T23:52:09.801Z,86.06
2017-10-26T23:54:37.346Z,86.02
2017-10-26T23:57:04.924Z,86.10
2017-10-26T23:59:32.456Z,85.29
